createdAt,value
2018-11-11T00:00:57.753Z,91.18
2018-11-11T00:05:59.915Z,91.26
2018-11-11T00:11:02.085Z,91.16
2018-11-11T00:16:04.732Z,91.19
2018-11-11T00:21:06.903Z,90.83
2018-11-11T00:26:09.066Z,90.59
2018-11-11T00:31:11.174Z,90.86
2018-11-11T00:36:13.333Z,90.22
2018-11-11T00:41:16.094Z,90.57
2018-11-11T00:46:18.233Z,90.59
2018-11-11T00:51:20.366Z,90.39
2018-11-11T00:56:22.525Z,90.20
2018-11-11T01:01:24.675Z,90.47
2018-11-11T01:06:26.848Z,89.83
2018-11-11T01:11:29.020Z,89.76
2018-11-11T01:16:31.116Z,89.65
2018-11-11T01:21:33.291Z,89.37
2018-11-11T01:26:35.650Z,89.35
2018-11-11T01:31:37.799Z,89.93
2018-11-11T01:36:39.936Z,91.44
2018-11-11T01:41:42.064Z,93.04
2018-11-11T01:46:44.190Z,94.11
2018-11-11T01:51:46.286Z,95.17
2018-11-11T01:56:48.399Z,95.57
2018-11-11T02:01:50.523Z,96.32
2018-11-11T02:06:52.606Z,96.26
2018-11-11T02:11:54.722Z,95.91
2018-11-11T02:16:56.816Z,95.27
2018-11-11T02:21:58.942Z,95.87
2018-11-11T02:27:01.099Z,95.76
2018-11-11T02:32:03.227Z,95.48
2018-11-11T02:37:05.744Z,95.41
2018-11-11T02:42:07.871Z,95.62
2018-11-11T02:47:10.007Z,95.60
2018-11-11T02:52:12.108Z,95.68
2018-11-11T02:57:14.228Z,95.63
2018-11-11T03:02:16.323Z,95.60
2018-11-11T03:07:18.439Z,95.47
2018-11-11T03:12:20.590Z,95.28
2018-11-11T03:17:22.711Z,94.77
2018-11-11T03:22:24.835Z,94.89
2018-11-11T03:27:26.968Z,95.52
2018-11-11T03:32:29.069Z,95.53
2018-11-11T03:37:31.175Z,95.32
2018-11-11T03:42:33.303Z,94.73
2018-11-11T03:47:35.386Z,94.67
2018-11-11T03:52:37.891Z,94.76
2018-11-11T03:57:40.082Z,94.28
2018-11-11T04:02:42.256Z,94.46
2018-11-11T04:07:44.409Z,94.72
2018-11-11T04:12:47.184Z,95.02
2018-11-11T04:17:49.279Z,94.29
2018-11-11T04:22:51.514Z,94.29
2018-11-11T04:27:53.639Z,93.86
2018-11-11T04:32:55.749Z,94.36
2018-11-11T04:37:57.833Z,94.25
2018-11-11T04:42:59.952Z,94.80
2018-11-11T04:48:02.054Z,94.55
2018-11-11T04:53:04.299Z,94.69
2018-11-11T04:58:06.406Z,94.12
2018-11-11T05:03:08.546Z,94.12
2018-11-11T05:08:10.618Z,94.36
2018-11-11T05:13:12.745Z,94.32
2018-11-11T05:18:14.875Z,93.84
2018-11-11T05:23:16.999Z,94.57
2018-11-11T05:28:19.135Z,94.32
2018-11-11T05:33:21.223Z,94.07
2018-11-11T05:38:23.322Z,94.05
2018-11-11T05:43:25.439Z,94.00
2018-11-11T05:48:27.560Z,94.05
2018-11-11T05:53:29.673Z,93.84
2018-11-11T05:58:31.829Z,94.10
2018-11-11T06:03:34.130Z,93.96
2018-11-11T06:08:36.242Z,94.08
2018-11-11T06:13:38.369Z,93.70
2018-11-11T06:18:40.465Z,94.29
2018-11-11T06:23:42.603Z,93.28
2018-11-11T06:28:44.718Z,93.68
2018-11-11T06:33:46.836Z,93.32
2018-11-11T06:38:48.934Z,93.08
2018-11-11T06:43:51.028Z,93.31
2018-11-11T06:48:53.168Z,92.10
2018-11-11T06:53:55.307Z,93.20
2018-11-11T06:58:57.419Z,92.76
2018-11-11T07:04:00.670Z,93.00
2018-11-11T07:09:04.273Z,92.54
2018-11-11T07:14:06.431Z,92.85
2018-11-11T07:19:08.519Z,93.27
2018-11-11T07:24:10.727Z,92.43
2018-11-11T07:29:12.915Z,92.58
2018-11-11T07:34:15.057Z,91.70
2018-11-11T07:39:17.176Z,92.71
2018-11-11T07:44:19.343Z,92.25
2018-11-11T07:49:21.447Z,91.88
2018-11-11T07:54:23.581Z,91.21
2018-11-11T07:59:25.708Z,91.39
2018-11-11T08:04:27.806Z,92.15
2018-11-11T08:09:29.906Z,91.48
2018-11-11T08:14:32.028Z,90.88
2018-11-11T08:19:34.157Z,91.25
2018-11-11T08:24:36.560Z,90.75
2018-11-11T08:29:38.711Z,91.20
2018-11-11T08:34:40.802Z,90.92
2018-11-11T08:39:42.908Z,91.31
2018-11-11T08:44:45.027Z,91.18
2018-11-11T08:49:47.156Z,91.19
2018-11-11T08:54:49.267Z,91.27
2018-11-11T08:59:51.383Z,91.31
2018-11-11T09:04:53.559Z,90.99
2018-11-11T09:09:55.696Z,90.39
2018-11-11T09:14:57.886Z,90.84
2018-11-11T09:20:00.083Z,91.28
2018-11-11T09:25:02.237Z,90.43
2018-11-11T09:30:06.704Z,90.24
2018-11-11T09:35:09.280Z,90.53
2018-11-11T09:40:12.400Z,89.97
2018-11-11T09:45:15.304Z,89.63
2018-11-11T09:50:17.493Z,89.21
2018-11-11T09:55:19.570Z,89.35
2018-11-11T10:00:22.284Z,88.92
2018-11-11T10:05:28.033Z,88.73
2018-11-11T10:10:35.864Z,88.67
2018-11-11T10:16:13.821Z,88.75
2018-11-11T10:23:29.391Z,88.59
2018-11-11T10:28:37.276Z,89.13
2018-11-11T10:33:49.402Z,88.16
2018-11-11T10:39:01.912Z,88.02
2018-11-11T10:44:25.711Z,88.08
2018-11-11T10:49:37.100Z,87.29
2018-11-11T10:54:39.513Z,87.25
2018-11-11T10:59:41.691Z,87.01
2018-11-11T11:04:49.639Z,87.08
2018-11-11T11:09:51.780Z,87.56
2018-11-11T11:14:53.943Z,87.20
2018-11-11T11:19:56.086Z,86.68
2018-11-11T11:24:58.245Z,86.59
2018-11-11T11:30:00.419Z,86.41
2018-11-11T11:35:03.162Z,85.87
2018-11-11T11:40:06.048Z,86.62
2018-11-11T11:45:09.416Z,85.69
2018-11-11T11:50:12.593Z,85.42
2018-11-11T11:55:14.816Z,84.13
2018-11-11T12:00:16.952Z,84.33
2018-11-11T12:05:19.137Z,83.76
2018-11-11T12:10:21.316Z,82.73
2018-11-11T12:15:23.481Z,79.67
2018-11-11T12:20:25.668Z,80.66
2018-11-11T12:25:27.823Z,77.49
2018-11-11T12:30:30.125Z,79.80
2018-11-11T12:35:32.283Z,78.89
2018-11-11T12:40:34.429Z,80.03
2018-11-11T12:45:36.618Z,80.54
2018-11-11T12:50:38.813Z,81.85
2018-11-11T12:55:40.961Z,82.16
2018-11-11T13:00:43.150Z,78.44
2018-11-11T13:05:45.274Z,74.76
2018-11-11T13:10:47.391Z,77.77
2018-11-11T13:15:49.532Z,80.35
2018-11-11T13:20:51.750Z,81.44
2018-11-11T13:25:53.904Z,81.93
2018-11-11T13:30:56.101Z,82.31
2018-11-11T13:35:58.352Z,82.98
2018-11-11T13:41:00.508Z,85.06
2018-11-11T13:46:02.688Z,88.30
2018-11-11T13:51:04.872Z,91.73
2018-11-11T13:56:07.039Z,92.22
2018-11-11T14:01:09.235Z,91.70
2018-11-11T14:06:11.390Z,91.79
2018-11-11T14:11:13.624Z,90.02
2018-11-11T14:16:15.805Z,90.67
2018-11-11T14:21:17.984Z,90.17
2018-11-11T14:26:20.213Z,92.31
2018-11-11T14:31:22.340Z,92.04
2018-11-11T14:36:24.532Z,92.18
2018-11-11T14:41:26.820Z,92.51
2018-11-11T14:46:29.001Z,91.77
2018-11-11T14:51:31.455Z,92.23
2018-11-11T14:56:33.689Z,92.45
2018-11-11T15:01:35.966Z,93.00
2018-11-11T15:06:38.138Z,92.54
2018-11-11T15:11:40.892Z,92.29
2018-11-11T15:16:43.057Z,90.64
2018-11-11T15:21:45.256Z,91.03
2018-11-11T15:26:47.400Z,90.98
2018-11-11T15:31:49.616Z,90.83
2018-11-11T15:36:51.818Z,90.58
2018-11-11T15:41:53.992Z,89.31
2018-11-11T15:46:56.151Z,89.29
2018-11-11T15:51:58.351Z,88.42
2018-11-11T15:57:00.517Z,88.23
2018-11-11T16:02:02.764Z,88.48
2018-11-11T16:07:05.122Z,87.45
2018-11-11T16:12:07.328Z,87.19
2018-11-11T16:17:09.510Z,87.89
2018-11-11T16:22:11.695Z,87.60
2018-11-11T16:27:13.867Z,87.38
2018-11-11T16:32:16.100Z,87.21
2018-11-11T16:37:18.315Z,86.71
2018-11-11T16:42:20.730Z,87.06
2018-11-11T16:47:22.882Z,87.06
2018-11-11T16:52:24.986Z,86.50
2018-11-11T16:57:27.114Z,86.16
2018-11-11T17:02:29.655Z,86.55
2018-11-11T17:07:31.811Z,86.67
2018-11-11T17:12:33.990Z,87.19
2018-11-11T17:17:36.357Z,87.05
2018-11-11T17:22:38.690Z,87.61
2018-11-11T17:27:41.049Z,87.68
2018-11-11T17:32:43.995Z,87.56
2018-11-11T17:37:46.451Z,87.56
2018-11-11T17:42:49.566Z,87.71
2018-11-11T17:47:52.568Z,87.29
2018-11-11T17:52:54.771Z,87.79
2018-11-11T17:57:57.144Z,86.99
2018-11-11T18:03:00.181Z,87.40
2018-11-11T18:08:02.717Z,87.40
2018-11-11T18:13:05.501Z,88.13
2018-11-11T18:18:07.861Z,89.11
2018-11-11T18:23:10.733Z,89.06
2018-11-11T18:28:13.314Z,89.90
2018-11-11T18:33:16.739Z,91.18
2018-11-11T18:38:21.013Z,91.36
2018-11-11T18:43:25.362Z,91.37
2018-11-11T18:48:27.949Z,91.82
2018-11-11T18:53:31.659Z,92.17
2018-11-11T18:58:34.548Z,92.00
2018-11-11T19:03:37.520Z,91.89
2018-11-11T19:08:40.275Z,91.29
2018-11-11T19:13:43.751Z,91.47
2018-11-11T19:18:47.946Z,90.70
2018-11-11T19:23:52.282Z,90.94
2018-11-11T19:28:55.132Z,90.60
2018-11-11T19:33:58.910Z,90.98
2018-11-11T19:39:04.777Z,90.39
2018-11-11T19:44:09.092Z,89.87
2018-11-11T19:49:13.806Z,90.10
2018-11-11T19:54:19.814Z,89.49
2018-11-11T19:59:23.654Z,89.27
2018-11-11T20:04:28.381Z,89.89
2018-11-11T20:09:33.569Z,89.82
2018-11-11T20:14:37.871Z,90.35
2018-11-11T20:19:41.145Z,90.13
2018-11-11T20:24:44.961Z,90.10
2018-11-11T20:29:48.421Z,89.71
2018-11-11T20:34:52.587Z,90.30
2018-11-11T20:39:56.246Z,91.29
2018-11-11T20:45:00.149Z,92.06
2018-11-11T20:50:03.657Z,92.62
2018-11-11T20:55:07.881Z,93.42
2018-11-11T21:00:14.228Z,94.09
2018-11-11T21:05:19.801Z,94.12
2018-11-11T21:10:24.042Z,95.10
2018-11-11T21:15:27.540Z,95.30
2018-11-11T21:20:31.242Z,95.62
2018-11-11T21:25:34.820Z,95.73
2018-11-11T21:30:37.045Z,95.45
2018-11-11T21:35:40.606Z,95.85
2018-11-11T21:40:42.855Z,95.46
2018-11-11T21:45:45.122Z,96.06
2018-11-11T21:50:47.394Z,95.54
2018-11-11T21:55:49.857Z,95.97
2018-11-11T22:00:52.383Z,95.35
2018-11-11T22:05:54.915Z,95.46
2018-11-11T22:10:57.143Z,95.73
2018-11-11T22:16:00.419Z,95.64
2018-11-11T22:21:02.508Z,95.68
2018-11-11T22:26:05.552Z,95.57
2018-11-11T22:31:08.604Z,95.44
2018-11-11T22:36:10.823Z,95.58
2018-11-11T22:41:13.029Z,95.03
2018-11-11T22:46:15.194Z,95.51
2018-11-11T22:51:17.380Z,95.15
2018-11-11T22:56:19.527Z,95.56
2018-11-11T23:01:21.973Z,95.89
2018-11-11T23:06:24.020Z,95.38
2018-11-11T23:11:26.158Z,94.77
2018-11-11T23:16:28.286Z,95.19
2018-11-11T23:21:30.447Z,94.60
2018-11-11T23:26:32.590Z,95.19
2018-11-11T23:31:34.746Z,95.10
2018-11-11T23:36:36.864Z,95.52
2018-11-11T23:41:39.033Z,95.31
2018-11-11T23:46:41.167Z,94.66
2018-11-11T23:51:43.321Z,95.01
2018-11-11T23:56:46.043Z,94.28
